DAL2119 KATL-KECP
Flight info
| Callsign | DAL2119 |
|---|---|
| Flight time | N/A |
| Altitude | 23000 |
| Route | HAALO3 SARGE DCT RRS DCT |
| Aircraft | MD88/M-SDFGIRWY/S |
Departure
| Time | 2026-05-08 00:40 |
|---|---|
| Airport | Hartsfield Jackson Atlanta International Airport (KATL) |
Arrival
| Time | N/A |
|---|---|
| Airport | Northwest Florida Beaches International Airport (KECP) |
| Time | Latitude | Longitude | Altitude | Speed | Heading |
|---|---|---|---|---|---|
| 2026-05-08 00:20 | 33.64056 | -84.43862 | 1007 ft | 0 kts | 270° |
| 2026-05-08 00:29 | 33.64056 | -84.43846 | 1007 ft | 3 kts | 270° |
| 2026-05-08 00:29 | 33.64056 | -84.43842 | 1007 ft | 2 kts | 270° |
| 2026-05-08 00:29 | 33.64056 | -84.43819 | 1007 ft | 3 kts | 265° |
| 2026-05-08 00:30 | 33.64064 | -84.43799 | 1007 ft | 3 kts | 214° |
| 2026-05-08 00:30 | 33.64078 | -84.43793 | 1007 ft | 0 kts | 184° |
| 2026-05-08 00:33 | 33.64077 | -84.43793 | 1007 ft | 2 kts | 183° |
| 2026-05-08 00:33 | 33.64024 | -84.43789 | 1007 ft | 10 kts | 175° |
| 2026-05-08 00:34 | 33.63950 | -84.43786 | 1007 ft | 11 kts | 178° |
| 2026-05-08 00:34 | 33.63867 | -84.43782 | 1007 ft | 13 kts | 178° |
| 2026-05-08 00:34 | 33.63775 | -84.43782 | 1007 ft | 14 kts | 182° |
| 2026-05-08 00:34 | 33.63681 | -84.43763 | 1007 ft | 14 kts | 135° |
| 2026-05-08 00:35 | 33.63664 | -84.43646 | 1007 ft | 15 kts | 90° |
| 2026-05-08 00:35 | 33.63664 | -84.43514 | 1007 ft | 17 kts | 90° |
| 2026-05-08 00:35 | 33.63664 | -84.43372 | 1006 ft | 18 kts | 90° |
| 2026-05-08 00:35 | 33.63664 | -84.43219 | 1007 ft | 19 kts | 90° |
| 2026-05-08 00:36 | 33.63665 | -84.43059 | 1007 ft | 20 kts | 90° |
| 2026-05-08 00:36 | 33.63664 | -84.42891 | 1007 ft | 21 kts | 90° |
| 2026-05-08 00:36 | 33.63658 | -84.42718 | 1007 ft | 21 kts | 96° |
| 2026-05-08 00:36 | 33.63655 | -84.42539 | 1007 ft | 22 kts | 90° |
| 2026-05-08 00:37 | 33.63655 | -84.42353 | 1007 ft | 23 kts | 90° |
| 2026-05-08 00:37 | 33.63655 | -84.42162 | 1008 ft | 23 kts | 90° |
| 2026-05-08 00:37 | 33.63655 | -84.41969 | 1007 ft | 23 kts | 90° |
| 2026-05-08 00:38 | 33.63655 | -84.41570 | 1007 ft | 25 kts | 89° |
| 2026-05-08 00:38 | 33.63656 | -84.41361 | 1006 ft | 25 kts | 90° |
| 2026-05-08 00:38 | 33.63654 | -84.41149 | 1007 ft | 26 kts | 90° |
| 2026-05-08 00:38 | 33.63650 | -84.40951 | 1007 ft | 15 kts | 105° |
| 2026-05-08 00:39 | 33.63591 | -84.40903 | 1007 ft | 7 kts | 180° |
| 2026-05-08 00:39 | 33.63538 | -84.40906 | 1007 ft | 8 kts | 184° |
| 2026-05-08 00:39 | 33.63489 | -84.40930 | 1008 ft | 8 kts | 227° |
| 2026-05-08 00:39 | 33.63470 | -84.40963 | 1008 ft | 5 kts | 262° |
| 2026-05-08 00:40 | 33.63469 | -84.41021 | 1007 ft | 15 kts | 268° |
| 2026-05-08 00:40 | 33.63472 | -84.41263 | 1006 ft | 63 kts | 270° |
| 2026-05-08 00:40 | 33.63471 | -84.42189 | 1008 ft | 156 kts | 271° |
| 2026-05-08 00:40 | 33.63437 | -84.43698 | 1682 ft | 191 kts | 271° |
| 2026-05-08 00:41 | 33.63406 | -84.45391 | 2640 ft | 220 kts | 274° |
| 2026-05-08 00:41 | 33.63430 | -84.47308 | 3440 ft | 231 kts | 273° |
| 2026-05-08 00:41 | 33.63510 | -84.49126 | 4322 ft | 224 kts | 277° |
| 2026-05-08 00:41 | 33.63682 | -84.50965 | 5149 ft | 217 kts | 276° |
| 2026-05-08 00:42 | 33.63818 | -84.52758 | 5919 ft | 214 kts | 275° |
| 2026-05-08 00:42 | 33.63944 | -84.54516 | 6684 ft | 209 kts | 275° |
| 2026-05-08 00:42 | 33.64064 | -84.56280 | 7192 ft | 215 kts | 274° |
| 2026-05-08 00:42 | 33.64179 | -84.58040 | 8068 ft | 193 kts | 274° |
| 2026-05-08 00:43 | 33.64318 | -84.59563 | 9103 ft | 184 kts | 276° |
| 2026-05-08 00:43 | 33.64476 | -84.61111 | 10098 ft | 186 kts | 273° |